Terminal Aerodrome Forecast
Issued by NWS

Home | Current Version | Previous Version | Text Only | Print | Product List | Glossary On
Versions: 1 2 3 4 5 6 7 8 9 10 11 12 13 14 15
000
FTUS46 KSEW 261741
TAFBLI
TAF
KBLI 261741Z 2618/2718 17015KT P6SM FEW090 BKN200
     FM270000 19011KT P6SM SCT200
     FM270600 17008KT P6SM SCT200
     FM271200 17008KT P6SM OVC020=

USA.gov is the U.S. government's official web portal to all federal, state and local government web resources and services.